| time (UTC) | temp C | wind direction | speed KPH | gust KPH | rain 1hr cm | rain 24hr cm | rain mn cm | humidity % | barometer mb |
| 20260508004322 | 16 | 351 | 3.2 | 9.7 | 0.00 | 0.00 | 0.00 | 42 | 1008.1 |
| 20260508003328 | 16 | 309 | 4.8 | 9.7 | 0.00 | 0.00 | 0.00 | 42 | 1007.9 |
| 20260508002315 | 16 | 296 | 6.4 | 11.3 | 0.00 | 0.00 | 0.00 | 41 | 1007.7 |
| 20260508001318 | 16 | 300 | 8.0 | 12.9 | 0.00 | 0.00 | 0.00 | 40 | 1007.6 |
| 20260508000339 | 16 | 328 | 8.0 | 16.1 | 0.00 | 0.00 | 0.00 | 40 | 1007.4 |
| 20260507235322 | 17 | 306 | 8.0 | 16.1 | 0.00 | 0.03 | 0.00 | 39 | 1007.4 |
| 20260507234316 | 17 | 330 | 8.0 | 14.5 | 0.00 | 0.03 | 0.00 | 39 | 1007.3 |
| 20260507233332 | 17 | 297 | 8.0 | 17.7 | 0.00 | 0.03 | 0.00 | 39 | 1007.2 |
| 20260507232328 | 17 | 317 | 4.8 | 14.5 | 0.00 | 0.03 | 0.00 | 41 | 1007.0 |
| 20260507231315 | 17 | 320 | 6.4 | 14.5 | 0.00 | 0.03 | 0.00 | 40 | 1006.9 |
| 20260507230333 | 17 | 323 | 9.7 | 17.7 | 0.00 | 0.03 | 0.00 | 40 | 1006.7 |
| 20260507225316 | 17 | 111 | 1.6 | 3.2 | 0.00 | 0.03 | 0.00 | 51 | 1006.6 |
| 20260507224332 | 17 | 111 | 0.0 | 3.2 | 0.00 | 0.03 | 0.00 | 52 | 1006.4 |
| 20260507223332 | 17 | 107 | 0.0 | 3.2 | 0.00 | 0.03 | 0.00 | 49 | 1006.3 |
| 20260507222318 | 17 | 100 | 3.2 | 3.2 | 0.00 | 0.03 | 0.00 | 45 | 1006.2 |
| 20260507221318 | 17 | 63 | 1.6 | 3.2 | 0.00 | 0.03 | 0.00 | 39 | 1006.2 |
| 20260507220333 | 18 | 5 | 0.0 | 6.4 | 0.00 | 0.03 | 0.00 | 39 | 1006.1 |
| 20260507215317 | 19 | 350 | 3.2 | 8.0 | 0.00 | 0.05 | 0.00 | 35 | 1006.1 |
| 20260507214337 | 20 | 30 | 4.8 | 12.9 | 0.00 | 0.05 | 0.00 | 34 | 1006.1 |
| 20260507213333 | 20 | 319 | 4.8 | 9.7 | 0.00 | 0.05 | 0.00 | 35 | 1006.0 |
| 20260507212316 | 19 | 306 | 4.8 | 19.3 | 0.00 | 0.05 | 0.00 | 34 | 1006.1 |
| 20260507211339 | 20 | 317 | 6.4 | 14.5 | 0.00 | 0.05 | 0.00 | 40 | 1006.2 |
| 20260507210316 | 20 | 342 | 6.4 | 12.9 | 0.00 | 0.05 | 0.00 | 37 | 1006.1 |
| 20260507205315 | 20 | 252 | 3.2 | 9.7 | 0.00 | 0.05 | 0.00 | 39 | 1006.2 |
| 20260507204335 | 19 | 321 | 9.7 | 19.3 | 0.00 | 0.05 | 0.00 | 36 | 1006.3 |
| 20260507203359 | 20 | 360 | 6.4 | 14.5 | 0.00 | 0.05 | 0.00 | 40 | 1006.5 |
| 20260507202317 | 20 | 67 | 3.2 | 19.3 | 0.00 | 0.05 | 0.00 | 42 | 1006.5 |
| 20260507201338 | 19 | 360 | 3.2 | 22.5 | 0.00 | 0.05 | 0.00 | 41 | 1006.5 |
| 20260507200339 | 19 | 351 | 3.2 | 14.5 | 0.00 | 0.05 | 0.00 | 41 | 1006.6 |
| 20260507195339 | 20 | 34 | 4.8 | 14.5 | 0.00 | 0.05 | 0.00 | 41 | 1006.8 |
| 20260507194331 | 19 | 199 | 1.6 | 12.9 | 0.00 | 0.05 | 0.00 | 41 | 1006.9 |
| 20260507193335 | 20 | 360 | 9.7 | 16.1 | 0.00 | 0.05 | 0.00 | 43 | 1007.1 |
| 20260507192336 | 20 | 333 | 3.2 | 6.4 | 0.00 | 0.05 | 0.00 | 38 | 1007.3 |
| 20260507191318 | 18 | 159 | 4.8 | 16.1 | 0.00 | 0.05 | 0.00 | 39 | 1007.4 |
| 20260507190322 | 19 | 338 | 6.4 | 14.5 | 0.00 | 0.05 | 0.00 | 41 | 1007.5 |
| 20260507185315 | 18 | 300 | 8.0 | 17.7 | 0.00 | 0.05 | 0.00 | 40 | 1007.7 |
| 20260507184318 | 18 | 325 | 9.7 | 17.7 | 0.00 | 0.05 | 0.00 | 41 | 1007.7 |
| 20260507183318 | 17 | 215 | 4.8 | 14.5 | 0.00 | 0.05 | 0.00 | 44 | 1007.9 |
| 20260507182317 | 17 | 284 | 4.8 | 12.9 | 0.00 | 0.05 | 0.00 | 46 | 1008.0 |
| 20260507181318 | 17 | 349 | 6.4 | 24.1 | 0.00 | 0.05 | 0.00 | 41 | 1008.1 |
| 20260507180319 | 17 | 320 | 8.0 | 22.5 | 0.00 | 0.05 | 0.00 | 40 | 1008.3 |
| 20260507175331 | 17 | 348 | 8.0 | 19.3 | 0.00 | 0.05 | 0.00 | 42 | 1008.4 |
| 20260507174338 | 17 | 304 | 6.4 | 17.7 | 0.00 | 0.05 | 0.00 | 43 | 1008.6 |
| 20260507173335 | 17 | 44 | 8.0 | 22.5 | 0.00 | 0.05 | 0.00 | 40 | 1008.8 |
| 20260507172337 | 17 | 315 | 6.4 | 22.5 | 0.00 | 0.05 | 0.00 | 44 | 1008.9 |
| 20260507171338 | 17 | 16 | 9.7 | 17.7 | 0.00 | 0.05 | 0.00 | 44 | 1009.0 |
| 20260507170338 | 17 | 331 | 4.8 | 14.5 | 0.00 | 0.05 | 0.00 | 47 | 1009.2 |
| 20260507165353 | 17 | 5 | 8.0 | 19.3 | 0.00 | 0.05 | 0.00 | 42 | 1009.4 |
| 20260507164337 | 16 | 351 | 9.7 | 20.9 | 0.00 | 0.05 | 0.00 | 44 | 1009.5 |
| 20260507163317 | 16 | 330 | 4.8 | 14.5 | 0.00 | 0.05 | 0.00 | 45 | 1009.6 |
| 20260507162322 | 16 | 13 | 3.2 | 16.1 | 0.00 | 0.05 | 0.00 | 48 | 1009.7 |
| 20260507161336 | 16 | 309 | 12.9 | 19.3 | 0.00 | 0.05 | 0.00 | 46 | 1009.9 |
| 20260507160331 | 16 | 340 | 8.0 | 17.7 | 0.00 | 0.05 | 0.00 | 45 | 1010.0 |
| 20260507155330 | 16 | 345 | 11.3 | 22.5 | 0.00 | 0.05 | 0.00 | 44 | 1010.1 |
| 20260507154313 | 15 | 35 | 6.4 | 16.1 | 0.00 | 0.05 | 0.00 | 45 | 1010.2 |
| 20260507153335 | 15 | 317 | 6.4 | 19.3 | 0.00 | 0.05 | 0.00 | 42 | 1010.2 |
| 20260507152315 | 15 | 5 | 3.2 | 16.1 | 0.00 | 0.05 | 0.00 | 42 | 1010.3 |
| 20260507151336 | 15 | 265 | 6.4 | 14.5 | 0.00 | 0.05 | 0.00 | 42 | 1010.5 |
| 20260507150334 | 15 | 9 | 6.4 | 19.3 | 0.00 | 0.05 | 0.00 | 42 | 1010.7 |
| 20260507145328 | 15 | 330 | 9.7 | 20.9 | 0.00 | 0.13 | 0.00 | 44 | 1010.9 |
| 20260507144331 | 13 | 342 | 8.0 | 17.7 | 0.00 | 0.13 | 0.00 | 47 | 1011.0 |
| 20260507143325 | 13 | 42 | 8.0 | 19.3 | 0.00 | 0.13 | 0.00 | 47 | 1011.0 |
| 20260507142314 | 13 | 328 | 8.0 | 17.7 | 0.00 | 0.13 | 0.00 | 48 | 1011.1 |
| 20260507141337 | 14 | 350 | 12.9 | 20.9 | 0.00 | 0.13 | 0.00 | 44 | 1011.1 |
| 20260507140351 | 13 | 21 | 9.7 | 17.7 | 0.00 | 0.13 | 0.00 | 48 | 1011.3 |
| 20260507135313 | 13 | 338 | 8.0 | 16.1 | 0.00 | 0.25 | 0.00 | 51 | 1011.5 |
| 20260507134331 | 13 | 325 | 9.7 | 19.3 | 0.00 | 0.25 | 0.00 | 48 | 1011.7 |
| 20260507133358 | 13 | 328 | 11.3 | 19.3 | 0.00 | 0.25 | 0.00 | 55 | 1011.6 |
| 20260507132317 | 13 | 342 | 8.0 | 17.7 | 0.00 | 0.25 | 0.00 | 56 | 1011.7 |
| 20260507131335 | 12 | 329 | 9.7 | 16.1 | 0.00 | 0.25 | 0.00 | 59 | 1011.7 |
| 20260507130337 | 12 | 341 | 9.7 | 17.7 | 0.00 | 0.25 | 0.00 | 56 | 1011.8 |
| 20260507125320 | 12 | 280 | 3.2 | 14.5 | 0.00 | 0.36 | 0.00 | 59 | 1011.9 |
| 20260507124312 | 12 | 344 | 6.4 | 12.9 | 0.00 | 0.36 | 0.00 | 59 | 1011.8 |
| 20260507123337 | 12 | 329 | 6.4 | 9.7 | 0.00 | 0.36 | 0.00 | 58 | 1011.7 |
| 20260507122318 | 11 | 5 | 4.8 | 14.5 | 0.00 | 0.36 | 0.00 | 61 | 1011.6 |
| 20260507121331 | 11 | 302 | 6.4 | 12.9 | 0.00 | 0.36 | 0.00 | 61 | 1011.5 |
| 20260507120312 | 11 | 309 | 6.4 | 12.9 | 0.00 | 0.36 | 0.00 | 63 | 1011.4 |
| 20260507115337 | 11 | 13 | 3.2 | 6.4 | 0.00 | 0.46 | 0.00 | 64 | 1011.5 |
| 20260507114314 | 11 | 336 | 4.8 | 8.0 | 0.00 | 0.46 | 0.00 | 64 | 1011.5 |
| 20260507113352 | 10 | 317 | 4.8 | 8.0 | 0.00 | 0.46 | 0.00 | 63 | 1011.4 |
| 20260507112334 | 10 | 318 | 3.2 | 8.0 | 0.00 | 0.46 | 0.00 | 65 | 1011.4 |
| 20260507111314 | 10 | 319 | 1.6 | 6.4 | 0.00 | 0.46 | 0.00 | 66 | 1011.4 |
| 20260507110313 | 10 | 345 | 6.4 | 14.5 | 0.00 | 0.46 | 0.00 | 67 | 1011.2 |
| 20260507105317 | 10 | 5 | 3.2 | 8.0 | 0.00 | 0.46 | 0.00 | 69 | 1011.1 |
| 20260507104337 | 10 | 5 | 1.6 | 3.2 | 0.00 | 0.46 | 0.00 | 69 | 1011.0 |
| 20260507103313 | 10 | 5 | 1.6 | 4.8 | 0.00 | 0.46 | 0.00 | 69 | 1010.7 |
| 20260507102315 | 10 | 330 | 1.6 | 4.8 | 0.00 | 0.46 | 0.00 | 69 | 1010.8 |
| 20260507101335 | 10 | 348 | 1.6 | 6.4 | 0.00 | 0.46 | 0.00 | 66 | 1010.6 |
| 20260507100312 | 10 | 360 | 4.8 | 8.0 | 0.00 | 0.46 | 0.00 | 65 | 1010.6 |
| 20260507095321 | 10 | 23 | 3.2 | 12.9 | 0.00 | 0.46 | 0.00 | 65 | 1010.3 |
| 20260507094331 | 10 | 28 | 6.4 | 12.9 | 0.00 | 0.46 | 0.00 | 65 | 1010.2 |
| 20260507093334 | 11 | 329 | 4.8 | 8.0 | 0.00 | 0.46 | 0.00 | 67 | 1010.3 |
| 20260507092330 | 11 | 325 | 3.2 | 8.0 | 0.00 | 0.46 | 0.00 | 68 | 1010.5 |
| 20260507091323 | 11 | 5 | 1.6 | 4.8 | 0.00 | 0.46 | 0.00 | 69 | 1010.4 |
| 20260507090329 | 11 | 9 | 1.6 | 4.8 | 0.00 | 0.46 | 0.00 | 68 | 1010.4 |
| 20260507085334 | 11 | 25 | 1.6 | 6.4 | 0.00 | 0.46 | 0.00 | 69 | 1010.3 |
| 20260507084315 | 11 | 342 | 6.4 | 12.9 | 0.00 | 0.46 | 0.00 | 69 | 1010.3 |
| 20260507083340 | 11 | 5 | 3.2 | 6.4 | 0.00 | 0.46 | 0.00 | 70 | 1010.2 |
| 20260507082330 | 11 | 11 | 3.2 | 9.7 | 0.00 | 0.46 | 0.00 | 71 | 1010.2 |
| 20260507081332 | 11 | 342 | 6.4 | 9.7 | 0.00 | 0.46 | 0.00 | 71 | 1010.0 |
| 20260507080335 | 11 | 335 | 9.7 | 16.1 | 0.00 | 0.46 | 0.00 | 73 | 1009.8 |
| 20260507075337 | 11 | 350 | 4.8 | 8.0 | 0.00 | 0.46 | 0.00 | 76 | 1009.6 |
| 20260507074338 | 11 | 336 | 3.2 | 8.0 | 0.00 | 0.46 | 0.00 | 78 | 1009.5 |
| 20260507073359 | 11 | 15 | 4.8 | 9.7 | 0.00 | 0.46 | 0.00 | 78 | 1009.5 |
| 20260507072351 | 11 | 341 | 6.4 | 12.9 | 0.00 | 0.46 | 0.00 | 79 | 1009.5 |
| 20260507071336 | 11 | 338 | 6.4 | 14.5 | 0.00 | 0.46 | 0.00 | 80 | 1009.8 |
| 20260507070337 | 12 | 351 | 3.2 | 4.8 | 0.00 | 0.46 | 0.00 | 81 | 1010.1 |
| 20260507065315 | 12 | 5 | 1.6 | 3.2 | 0.00 | 0.46 | 0.00 | 81 | 1010.1 |
| 20260507064322 | 12 | 349 | 3.2 | 6.4 | 0.00 | 0.46 | 0.00 | 81 | 1010.0 |
| 20260507063323 | 12 | 348 | 3.2 | 6.4 | 0.00 | 0.46 | 0.00 | 81 | 1010.0 |
| 20260507062329 | 12 | 331 | 1.6 | 3.2 | 0.00 | 0.46 | 0.00 | 82 | 1010.1 |
| 20260507061400 | 12 | 336 | 1.6 | 6.4 | 0.00 | 0.46 | 0.00 | 82 | 1010.1 |
| 20260507060341 | 12 | 333 | 3.2 | 6.4 | 0.00 | 0.46 | 0.00 | 81 | 1010.1 |
| 20260507055320 | 12 | 5 | 1.6 | 3.2 | 0.00 | 0.46 | 0.00 | 81 | 1010.1 |
| 20260507054340 | 12 | 25 | 1.6 | 9.7 | 0.00 | 0.46 | 0.00 | 80 | 1009.9 |
| 20260507053316 | 12 | 338 | 3.2 | 4.8 | 0.00 | 0.46 | 0.00 | 80 | 1009.9 |
| 20260507052315 | 12 | 334 | 3.2 | 6.4 | 0.00 | 0.46 | 0.00 | 80 | 1009.9 |
| 20260507051338 | 12 | 18 | 3.2 | 8.0 | 0.00 | 0.46 | 0.00 | 79 | 1009.9 |
| 20260507050401 | 12 | 317 | 4.8 | 9.7 | 0.00 | 0.46 | 0.00 | 79 | 1009.9 |
| 20260507045400 | 12 | 346 | 6.4 | 12.9 | 0.00 | 0.46 | 0.00 | 79 | 1009.8 |
| 20260507044318 | 12 | 5 | 6.4 | 16.1 | 0.00 | 0.46 | 0.00 | 80 | 1009.7 |
| 20260507043353 | 12 | 351 | 6.4 | 14.5 | 0.00 | 0.46 | 0.00 | 80 | 1009.6 |
| 20260507042337 | 12 | 343 | 3.2 | 6.4 | 0.00 | 0.46 | 0.00 | 81 | 1009.7 |
| 20260507041318 | 12 | 341 | 4.8 | 9.7 | 0.00 | 0.46 | 0.00 | 82 | 1010.1 |
| 20260507040324 | 12 | 345 | 4.8 | 14.5 | 0.00 | 0.46 | 0.00 | 82 | 1010.1 |
| 20260507035320 | 12 | 338 | 6.4 | 12.9 | 0.00 | 0.46 | 0.46 | 82 | 1010.0 |
| 20260507034339 | 13 | 343 | 3.2 | 12.9 | 0.00 | 0.46 | 0.46 | 83 | 1009.5 |
| 20260507033328 | 13 | 320 | 8.0 | 19.3 | 0.00 | 0.46 | 0.46 | 82 | 1009.7 |
| 20260507032334 | 13 | 315 | 9.7 | 17.7 | 0.00 | 0.46 | 0.46 | 83 | 1009.6 |
| 20260507031315 | 13 | 343 | 6.4 | 12.9 | 0.00 | 0.46 | 0.46 | 83 | 1009.7 |
| 20260507030336 | 13 | 325 | 9.7 | 19.3 | 0.00 | 0.46 | 0.46 | 83 | 1009.7 |
| 20260507025338 | 13 | 325 | 9.7 | 16.1 | 0.00 | 0.46 | 0.46 | 82 | 1009.7 |
| 20260507024352 | 13 | 339 | 9.7 | 16.1 | 0.00 | 0.46 | 0.46 | 82 | 1009.3 |
| 20260507023341 | 13 | 5 | 16.1 | 29.0 | 0.00 | 0.46 | 0.46 | 82 | 1009.4 |
| 20260507022335 | 13 | 333 | 11.3 | 19.3 | 0.00 | 0.46 | 0.46 | 83 | 1009.2 |
| 20260507021316 | 13 | 351 | 8.0 | 17.7 | 0.00 | 0.46 | 0.46 | 83 | 1009.1 |
| 20260507020316 | 13 | 348 | 6.4 | 14.5 | 0.00 | 0.46 | 0.46 | 83 | 1009.2 |
| 20260507015318 | 14 | 98 | 6.4 | 12.9 | 0.00 | 0.46 | 0.46 | 83 | 1009.3 |
| 20260507014320 | 14 | 43 | 1.6 | 12.9 | 0.00 | 0.46 | 0.46 | 83 | 1009.1 |
| 20260507013317 | 15 | 11 | 6.4 | 12.9 | 0.00 | 0.46 | 0.46 | 83 | 1008.8 |
| 20260507012319 | 15 | 333 | 8.0 | 12.9 | 0.00 | 0.46 | 0.46 | 83 | 1008.9 |
| 20260507011340 | 15 | 360 | 8.0 | 19.3 | 0.00 | 0.46 | 0.46 | 83 | 1008.8 |
| 20260507010340 | 15 | 346 | 8.0 | 12.9 | 0.00 | 0.46 | 0.46 | 83 | 1008.9 |
| 20260507005336 | 15 | 338 | 9.7 | 22.5 | 0.00 | 0.46 | 0.46 | 83 | 1009.2 |